West Haven, CT (06516)

3:13 PM EDT on October 01, 2016 (GMT -0400)
Third Avenue Park | | Change Station

Elev 13 ft 41.27 °N, 72.94 °W | Updated 2 minutes ago

Overcast
Overcast
59.2 °F
Feels Like 59.2 °F
N
4.0
Wind Variable Wind from North
Gusts 15.0 mph

Today
High -- | Low -- °F
--% Chance of Precip.
Yesterday
High -- | Low -- °F
Precip. -- in
Pressure 30.19 in
Visibility 10.0 miles
Clouds Overcast 800 ft
Dew Point 56 °F
Humidity 89%
Rainfall in
Snow Depth Not available.
6:49 AM 6:32 PM
New Moon, 1% visible
METAR KHVN 011853Z 01011KT 10SM OVC008 14/12 A3019 RMK AO2 SLP223 T01440122
Pressure 30.19 in
Visibility 10.0 miles
Clouds Overcast 800 ft
Dew Point 56 °F
Humidity 89%
Rainfall in
Snow Depth Not available.
6:49 AM 6:32 PM
New Moon, 1% visible
METAR KHVN 011853Z 01011KT 10SM OVC008 14/12 A3019 RMK AO2 SLP223 T01440122

10-Day Weather Forecast

Almanac

Astronomy

Oct. 01, 2016 Rise Set
Actual Time
Civil Twilight
Nautical Twilight
Astronomical Twilight
Moon
Length of Visible Light
Length of Day
Tomorrow will be .
, % of the Moon is Illuminated

Today's Extremes

State Highs State Lows

Community

WunderPhotos

Upload Photos

1,942,999 photos uploaded!

WunderBlog® & News

Nearby

Air Quality

  Air Quality AQ Index Pollutant
Not available.

Snow Depth

Station Depth Elevation

Earthquake Activity

City Distance Mag. Time & Date
Minimum magnitude displayed is 2.5.

Coastal Water Temperatures

Place Temperature

Stations

Nearby Weather Stations

Station Location Temp. Windchill Dew Point Humidity Wind Precip. Elev Updated Type
                   

Watches & Warnings

There are currently no watches in effect.